createdAt,value
2018-01-13T00:01:43.199Z,6.20
2018-01-13T00:04:10.697Z,6.20
2018-01-13T00:06:38.205Z,6.20
2018-01-13T00:09:05.824Z,6.10
2018-01-13T00:11:33.310Z,6.10
2018-01-13T00:14:01.559Z,6.10
2018-01-13T00:16:29.079Z,6.20
2018-01-13T00:18:57.311Z,6.20
2018-01-13T00:21:24.818Z,6.10
2018-01-13T00:23:52.585Z,6.10
2018-01-13T00:26:20.168Z,6.10
2018-01-13T00:28:47.698Z,6.10
2018-01-13T00:31:15.356Z,6.10
2018-01-13T00:33:43.602Z,6.20
2018-01-13T00:36:11.096Z,6.20
2018-01-13T00:38:39.347Z,6.20
2018-01-13T00:41:06.835Z,6.10
2018-01-13T00:43:34.311Z,6.10
2018-01-13T00:46:01.813Z,6.10
2018-01-13T00:48:29.287Z,6.10
2018-01-13T00:50:57.527Z,6.10
2018-01-13T00:53:25.451Z,6.10
2018-01-13T00:55:52.940Z,6.10
2018-01-13T00:58:20.434Z,6.00
2018-01-13T01:00:47.928Z,6.00
2018-01-13T01:03:15.404Z,6.00
2018-01-13T01:05:42.943Z,6.00
2018-01-13T01:08:10.427Z,6.00
2018-01-13T01:10:37.911Z,6.10
2018-01-13T01:13:05.411Z,6.10
2018-01-13T01:15:32.915Z,6.00
2018-01-13T01:18:00.395Z,5.90
2018-01-13T01:20:27.883Z,5.90
2018-01-13T01:22:55.608Z,5.90
2018-01-13T01:25:23.084Z,5.80
2018-01-13T01:27:51.397Z,5.90
2018-01-13T01:30:18.879Z,5.90
2018-01-13T01:32:46.437Z,5.90
2018-01-13T01:35:14.329Z,5.90
2018-01-13T01:37:41.812Z,6.00
2018-01-13T01:40:09.296Z,5.90
2018-01-13T01:42:37.604Z,5.80
2018-01-13T01:45:05.928Z,5.90
2018-01-13T01:47:33.814Z,5.80
2018-01-13T01:50:01.291Z,5.80
2018-01-13T01:52:28.800Z,5.80
2018-01-13T01:54:58.175Z,5.80
2018-01-13T01:57:26.052Z,5.80
2018-01-13T01:59:53.546Z,5.70
2018-01-13T02:02:21.116Z,5.70
2018-01-13T02:04:48.607Z,5.70
2018-01-13T02:07:16.102Z,5.70
2018-01-13T02:09:43.632Z,5.80
2018-01-13T02:12:11.099Z,5.70
2018-01-13T02:14:38.608Z,5.70
2018-01-13T02:17:06.083Z,5.60
2018-01-13T02:19:33.638Z,5.60
2018-01-13T02:22:01.154Z,5.60
2018-01-13T02:24:28.655Z,5.60
2018-01-13T02:26:56.199Z,5.60
2018-01-13T02:29:24.442Z,5.60
2018-01-13T02:31:52.439Z,5.50
2018-01-13T02:34:19.915Z,5.50
2018-01-13T02:36:47.728Z,5.50
2018-01-13T02:39:15.986Z,5.40
2018-01-13T02:41:43.481Z,5.40
2018-01-13T02:44:10.980Z,5.40
2018-01-13T02:46:38.472Z,5.50
2018-01-13T02:49:06.720Z,5.50
2018-01-13T02:51:34.616Z,5.50
2018-01-13T02:54:02.863Z,5.50
2018-01-13T02:56:30.356Z,5.40
2018-01-13T02:58:58.618Z,5.50
2018-01-13T03:01:26.095Z,5.40
2018-01-13T03:03:54.331Z,5.40
2018-01-13T03:06:22.243Z,5.20
2018-01-13T03:08:49.725Z,5.40
2018-01-13T03:11:17.191Z,5.40
2018-01-13T03:13:44.675Z,5.40
2018-01-13T03:16:12.163Z,5.40
2018-01-13T03:18:40.407Z,5.40
2018-01-13T03:21:07.939Z,5.40
2018-01-13T03:23:35.812Z,5.50
2018-01-13T03:26:03.281Z,5.40
2018-01-13T03:28:30.931Z,5.40
2018-01-13T03:30:58.818Z,5.40
2018-01-13T03:33:26.445Z,5.40
2018-01-13T03:35:53.996Z,5.40
2018-01-13T03:38:21.472Z,5.40
2018-01-13T03:40:48.980Z,5.40
2018-01-13T03:43:17.252Z,5.40
2018-01-13T03:45:44.845Z,5.40
2018-01-13T03:48:13.510Z,5.40
2018-01-13T03:50:41.000Z,5.30
2018-01-13T03:53:08.471Z,5.30
2018-01-13T03:55:35.955Z,5.30
2018-01-13T03:58:03.439Z,5.30
2018-01-13T04:00:30.937Z,5.40
2018-01-13T04:02:58.465Z,5.30
2018-01-13T04:05:26.410Z,5.30
2018-01-13T04:07:54.662Z,5.30
2018-01-13T04:10:22.143Z,5.30
2018-01-13T04:12:50.399Z,5.30
2018-01-13T04:15:18.295Z,5.30
2018-01-13T04:17:45.795Z,5.30
2018-01-13T04:20:13.329Z,5.40
2018-01-13T04:22:40.841Z,5.30
2018-01-13T04:25:08.363Z,5.20
2018-01-13T04:27:35.875Z,5.20
2018-01-13T04:30:04.121Z,5.30
2018-01-13T04:32:31.610Z,5.20
2018-01-13T04:35:00.257Z,5.20
2018-01-13T04:37:27.890Z,5.20
2018-01-13T04:39:55.367Z,5.20
2018-01-13T04:42:22.874Z,5.10
2018-01-13T04:44:51.159Z,5.10
2018-01-13T04:47:18.650Z,5.10
2018-01-13T04:49:46.140Z,5.10
2018-01-13T04:52:13.627Z,5.10
2018-01-13T04:54:41.874Z,5.00
2018-01-13T04:57:09.792Z,5.00
2018-01-13T04:59:37.298Z,5.00
2018-01-13T05:02:04.810Z,5.00
2018-01-13T05:04:32.625Z,4.90
2018-01-13T05:07:00.108Z,5.10
2018-01-13T05:09:27.599Z,5.10
2018-01-13T05:11:55.110Z,5.10
2018-01-13T05:14:23.020Z,5.10
2018-01-13T05:16:50.495Z,4.90
2018-01-13T05:19:19.062Z,4.90
2018-01-13T05:21:46.532Z,4.90
2018-01-13T05:24:14.023Z,5.00
2018-01-13T05:26:41.508Z,5.00
2018-01-13T05:29:08.987Z,4.90
2018-01-13T05:31:36.507Z,4.80
2018-01-13T05:34:04.775Z,4.70
2018-01-13T05:36:33.099Z,4.80
2018-01-13T05:39:00.626Z,4.70
2018-01-13T05:41:28.995Z,4.70
2018-01-13T05:43:57.235Z,4.60
2018-01-13T05:46:24.710Z,4.70
2018-01-13T05:48:53.739Z,4.60
2018-01-13T05:51:21.218Z,4.50
2018-01-13T05:53:48.699Z,4.60
2018-01-13T05:56:16.233Z,4.60
2018-01-13T05:58:43.759Z,4.50
2018-01-13T06:01:12.040Z,4.50
2018-01-13T06:03:40.296Z,4.40
2018-01-13T06:06:08.163Z,4.40
2018-01-13T06:08:36.045Z,4.30
2018-01-13T06:11:03.908Z,4.20
2018-01-13T06:13:32.151Z,4.20
2018-01-13T06:15:59.626Z,4.20
2018-01-13T06:18:27.515Z,4.30
2018-01-13T06:20:55.385Z,4.30
2018-01-13T06:23:22.880Z,4.20
2018-01-13T06:25:50.787Z,4.30
2018-01-13T06:28:19.035Z,4.30
2018-01-13T06:30:46.533Z,4.30
2018-01-13T06:33:14.055Z,4.40
2018-01-13T06:35:41.531Z,4.40
2018-01-13T06:38:09.407Z,4.30
2018-01-13T06:40:37.318Z,4.30
2018-01-13T06:43:04.841Z,4.30
2018-01-13T06:45:33.123Z,4.30
2018-01-13T06:48:00.707Z,4.20
2018-01-13T06:50:28.183Z,4.30
2018-01-13T06:52:56.074Z,4.30
2018-01-13T06:55:25.061Z,4.40
2018-01-13T06:57:52.899Z,4.40
2018-01-13T07:00:20.372Z,4.30
2018-01-13T07:02:48.291Z,4.40
2018-01-13T07:05:17.114Z,4.40
2018-01-13T07:07:44.591Z,4.40
2018-01-13T07:10:12.132Z,4.40
2018-01-13T07:12:39.623Z,4.50
2018-01-13T07:15:07.498Z,4.50
2018-01-13T07:17:35.755Z,4.50
2018-01-13T07:20:03.654Z,4.50
2018-01-13T07:22:31.517Z,4.60
2018-01-13T07:24:59.824Z,4.60
2018-01-13T07:27:28.427Z,4.70
2018-01-13T07:29:56.687Z,4.70
2018-01-13T07:32:24.177Z,4.70
2018-01-13T07:34:51.657Z,4.70
2018-01-13T07:37:19.974Z,4.80
2018-01-13T07:39:47.867Z,4.80
2018-01-13T07:42:15.403Z,4.80
2018-01-13T07:44:44.050Z,4.90
2018-01-13T07:47:14.306Z,4.90
2018-01-13T07:49:44.055Z,4.90
2018-01-13T07:52:12.007Z,4.90
2018-01-13T07:54:39.501Z,4.90
2018-01-13T07:57:07.771Z,4.90
2018-01-13T07:59:35.643Z,4.90
2018-01-13T08:02:03.150Z,5.00
2018-01-13T08:04:30.665Z,5.00
2018-01-13T08:06:58.921Z,5.00
2018-01-13T08:09:26.804Z,5.00
2018-01-13T08:11:55.067Z,5.00
2018-01-13T08:14:22.627Z,5.10
2018-01-13T08:16:50.511Z,5.10
2018-01-13T08:19:18.771Z,5.10
2018-01-13T08:21:46.239Z,5.20
2018-01-13T08:24:14.170Z,5.20
2018-01-13T08:26:41.667Z,5.20
2018-01-13T08:29:09.575Z,5.20
2018-01-13T08:31:37.072Z,5.20
2018-01-13T08:34:04.640Z,5.20
2018-01-13T08:36:32.510Z,5.30
2018-01-13T08:39:00.818Z,5.30
2018-01-13T08:41:28.715Z,5.30
2018-01-13T08:43:56.771Z,5.30
2018-01-13T08:46:24.277Z,5.30
2018-01-13T08:48:51.763Z,5.40
2018-01-13T08:51:19.234Z,5.30
2018-01-13T08:53:46.743Z,5.30
2018-01-13T08:56:14.207Z,5.30
2018-01-13T08:58:42.112Z,5.40
2018-01-13T09:01:10.766Z,5.30
2018-01-13T09:03:39.496Z,5.30
2018-01-13T09:06:18.059Z,5.40
2018-01-13T09:08:46.637Z,5.50
2018-01-13T09:11:14.525Z,5.50
2018-01-13T09:13:42.772Z,5.50
2018-01-13T09:16:10.250Z,5.40
2018-01-13T09:18:38.499Z,5.50
2018-01-13T09:21:06.032Z,5.50
2018-01-13T09:23:33.513Z,5.50
2018-01-13T09:26:01.404Z,5.60
2018-01-13T09:28:28.950Z,5.60
2018-01-13T09:30:56.395Z,5.70
2018-01-13T09:33:23.871Z,5.60
2018-01-13T09:35:51.744Z,5.60
2018-01-13T09:38:20.066Z,5.60
2018-01-13T09:40:48.035Z,5.70
2018-01-13T09:43:15.839Z,5.70
2018-01-13T09:45:43.357Z,5.70
2018-01-13T09:48:11.243Z,5.70
2018-01-13T09:50:38.743Z,5.70
2018-01-13T09:53:07.002Z,5.70
2018-01-13T09:55:34.488Z,5.70
2018-01-13T09:58:01.988Z,5.70
2018-01-13T10:00:29.467Z,5.70
2018-01-13T10:02:57.324Z,5.80
2018-01-13T10:05:24.819Z,5.80
2018-01-13T10:07:53.055Z,5.80
2018-01-13T10:10:20.547Z,5.80
2018-01-13T10:12:48.435Z,5.90
2018-01-13T10:15:16.667Z,5.90
2018-01-13T10:17:44.919Z,6.00
2018-01-13T10:20:12.465Z,6.00
2018-01-13T10:22:39.943Z,6.00
2018-01-13T10:25:07.480Z,6.10
2018-01-13T10:27:34.987Z,6.00
2018-01-13T10:30:02.860Z,6.10
2018-01-13T10:32:31.101Z,6.10
2018-01-13T10:34:58.606Z,6.00
2018-01-13T10:37:26.489Z,6.10
2018-01-13T10:39:54.457Z,6.10
2018-01-13T10:42:22.075Z,6.10
2018-01-13T10:44:49.977Z,6.10
2018-01-13T10:47:17.467Z,6.10
2018-01-13T10:49:44.963Z,6.10
2018-01-13T10:52:12.461Z,6.10
2018-01-13T10:54:39.938Z,6.10
2018-01-13T10:57:07.444Z,6.20
2018-01-13T10:59:35.001Z,6.20
2018-01-13T11:02:03.288Z,6.10
2018-01-13T11:04:31.701Z,6.20
2018-01-13T11:06:59.269Z,6.20
2018-01-13T11:09:26.795Z,6.20
2018-01-13T11:11:54.315Z,6.20
2018-01-13T11:14:21.792Z,6.20
2018-01-13T11:16:50.039Z,6.20
2018-01-13T11:19:17.541Z,6.20
2018-01-13T11:21:45.435Z,6.20
2018-01-13T11:24:13.673Z,6.20
2018-01-13T11:26:41.943Z,6.20
2018-01-13T11:29:10.198Z,6.30
2018-01-13T11:31:37.684Z,6.30
2018-01-13T11:34:06.279Z,6.30
2018-01-13T11:36:34.171Z,6.40
2018-01-13T11:39:01.691Z,6.50
2018-01-13T11:41:29.947Z,6.50
2018-01-13T11:43:57.432Z,6.50
2018-01-13T11:46:24.935Z,6.60
2018-01-13T11:48:52.427Z,6.60
2018-01-13T11:51:19.912Z,6.60
2018-01-13T11:53:47.392Z,6.70
2018-01-13T11:56:15.634Z,6.70
2018-01-13T11:58:43.874Z,6.70
2018-01-13T12:01:11.359Z,6.80
2018-01-13T12:03:39.619Z,6.90
2018-01-13T12:06:07.114Z,6.90
2018-01-13T12:08:34.651Z,6.90
2018-01-13T12:11:02.928Z,6.80
2018-01-13T12:13:30.822Z,6.80
2018-01-13T12:15:58.324Z,6.80
2018-01-13T12:18:26.254Z,6.90
2018-01-13T12:20:53.739Z,6.90
2018-01-13T12:23:21.256Z,6.80
2018-01-13T12:25:48.739Z,6.90
2018-01-13T12:28:16.236Z,7.10
2018-01-13T12:30:43.749Z,7.10
2018-01-13T12:33:11.488Z,7.20
2018-01-13T12:35:39.831Z,7.00
2018-01-13T12:38:07.316Z,7.10
2018-01-13T12:40:34.900Z,7.10
2018-01-13T12:43:02.820Z,7.10
2018-01-13T12:45:30.361Z,7.10
2018-01-13T12:47:57.884Z,7.10
2018-01-13T12:50:25.364Z,7.20
2018-01-13T12:52:52.875Z,7.30
2018-01-13T12:55:20.464Z,7.20
2018-01-13T12:57:47.947Z,7.20
2018-01-13T13:00:15.414Z,7.20
2018-01-13T13:02:43.893Z,7.30
2018-01-13T13:05:11.468Z,7.20
2018-01-13T13:07:39.715Z,7.20
2018-01-13T13:10:07.659Z,7.20
2018-01-13T13:12:35.143Z,7.20
2018-01-13T13:15:02.612Z,7.10
2018-01-13T13:17:30.641Z,7.20
2018-01-13T13:19:58.148Z,7.20
2018-01-13T13:22:25.642Z,7.20
2018-01-13T13:24:53.585Z,7.30
2018-01-13T13:27:21.019Z,7.30
2018-01-13T13:29:48.522Z,7.30
2018-01-13T13:32:16.031Z,7.30
2018-01-13T13:34:44.375Z,7.20
2018-01-13T13:37:11.933Z,7.30
2018-01-13T13:39:39.458Z,7.30
2018-01-13T13:42:06.944Z,7.20
2018-01-13T13:44:34.433Z,7.30
2018-01-13T13:47:01.935Z,7.20
2018-01-13T13:49:30.195Z,7.10
2018-01-13T13:51:57.659Z,7.10
2018-01-13T13:54:25.974Z,7.20
2018-01-13T13:56:53.849Z,7.20
2018-01-13T13:59:21.732Z,7.20
2018-01-13T14:01:49.252Z,7.10
2018-01-13T14:04:16.760Z,7.10
2018-01-13T14:06:44.627Z,7.10
2018-01-13T14:09:12.112Z,7.10
2018-01-13T14:11:40.426Z,7.20
2018-01-13T14:14:07.925Z,7.10
2018-01-13T14:16:36.219Z,7.10
2018-01-13T14:19:04.488Z,7.10
2018-01-13T14:21:32.390Z,7.00
2018-01-13T14:23:59.904Z,7.00
2018-01-13T14:26:27.398Z,7.00
2018-01-13T14:28:54.886Z,7.00
2018-01-13T14:31:22.369Z,7.00
2018-01-13T14:33:49.876Z,7.00
2018-01-13T14:36:17.447Z,7.00
2018-01-13T14:38:45.345Z,7.00
2018-01-13T14:41:12.835Z,7.00
2018-01-13T14:43:41.063Z,7.00
2018-01-13T14:46:09.315Z,6.90
2018-01-13T14:48:36.779Z,6.90
2018-01-13T14:51:04.281Z,7.00
2018-01-13T14:53:31.783Z,6.90
2018-01-13T14:55:59.251Z,6.90
2018-01-13T14:58:27.895Z,6.90
2018-01-13T15:00:55.404Z,6.90
2018-01-13T15:03:22.889Z,6.80
2018-01-13T15:05:50.360Z,6.90
2018-01-13T15:08:18.273Z,6.90
2018-01-13T15:10:45.740Z,6.90
2018-01-13T15:13:13.212Z,6.80
2018-01-13T15:15:41.119Z,6.90
2018-01-13T15:18:09.364Z,6.80
2018-01-13T15:20:36.863Z,6.70
2018-01-13T15:23:05.172Z,6.70
2018-01-13T15:25:33.135Z,6.70
2018-01-13T15:28:01.021Z,6.70
2018-01-13T15:30:28.560Z,6.70
2018-01-13T15:32:56.768Z,6.70
2018-01-13T15:35:24.263Z,6.80
2018-01-13T15:37:52.531Z,6.70
2018-01-13T15:40:20.407Z,6.60
2018-01-13T15:42:48.676Z,6.60
2018-01-13T15:45:16.187Z,6.60
2018-01-13T15:47:44.452Z,6.60
2018-01-13T15:50:11.954Z,6.60
2018-01-13T15:52:39.823Z,6.60
2018-01-13T15:55:07.702Z,6.60
2018-01-13T15:57:35.967Z,6.60
2018-01-13T16:00:03.443Z,6.60
2018-01-13T16:02:31.314Z,6.60
2018-01-13T16:04:58.791Z,6.60
2018-01-13T16:07:26.291Z,6.50
2018-01-13T16:09:54.163Z,6.50
2018-01-13T16:12:21.631Z,6.40
2018-01-13T16:14:49.899Z,6.30
2018-01-13T16:17:17.363Z,6.30
2018-01-13T16:19:45.666Z,6.30
2018-01-13T16:22:13.160Z,6.30
2018-01-13T16:24:40.650Z,6.20
2018-01-13T16:27:08.895Z,6.20
2018-01-13T16:29:36.383Z,6.20
2018-01-13T16:32:04.264Z,6.70
2018-01-13T16:34:32.128Z,6.20
2018-01-13T16:37:00.707Z,6.10
2018-01-13T16:39:28.217Z,6.10
2018-01-13T16:41:55.716Z,6.20
2018-01-13T16:44:23.979Z,6.20
2018-01-13T16:46:52.959Z,6.10
2018-01-13T16:49:20.448Z,6.10
2018-01-13T16:51:48.713Z,6.10
2018-01-13T16:54:16.183Z,6.10
2018-01-13T16:56:44.427Z,6.00
2018-01-13T16:59:12.695Z,6.00
2018-01-13T17:01:40.579Z,6.10
2018-01-13T17:04:08.455Z,6.00
2018-01-13T17:06:36.066Z,6.10
2018-01-13T17:09:03.535Z,6.10
2018-01-13T17:11:31.431Z,6.10
2018-01-13T17:13:59.706Z,6.10
2018-01-13T17:16:27.186Z,6.10
2018-01-13T17:18:55.079Z,6.10
2018-01-13T17:21:22.590Z,6.00
2018-01-13T17:23:50.085Z,6.00
2018-01-13T17:26:17.572Z,6.00
2018-01-13T17:28:45.342Z,6.00
2018-01-13T17:31:12.815Z,6.00
2018-01-13T17:33:40.305Z,6.00
2018-01-13T17:36:07.802Z,5.90
2018-01-13T17:38:35.357Z,5.90
2018-01-13T17:41:03.602Z,5.90
2018-01-13T17:43:31.878Z,5.90
2018-01-13T17:46:00.190Z,5.90
2018-01-13T17:48:28.388Z,5.90
2018-01-13T17:50:56.267Z,5.90
2018-01-13T17:53:23.736Z,6.00
2018-01-13T17:55:51.647Z,6.00
2018-01-13T17:58:19.942Z,6.00
2018-01-13T18:00:47.427Z,6.00
2018-01-13T18:03:15.309Z,6.00
2018-01-13T18:05:43.197Z,6.00
2018-01-13T18:08:11.068Z,6.00
2018-01-13T18:10:38.641Z,5.90
2018-01-13T18:13:06.233Z,5.90
2018-01-13T18:15:34.139Z,5.80
2018-01-13T18:18:02.137Z,5.80
2018-01-13T18:20:30.387Z,5.70
2018-01-13T18:22:58.264Z,5.70
2018-01-13T18:25:25.743Z,5.60
2018-01-13T18:27:53.675Z,5.50
2018-01-13T18:30:21.184Z,5.50
2018-01-13T18:32:49.063Z,5.50
2018-01-13T18:35:16.867Z,5.50
2018-01-13T18:37:44.350Z,5.40
2018-01-13T18:40:12.232Z,5.40
2018-01-13T18:42:40.881Z,5.30
2018-01-13T18:45:09.749Z,5.20
2018-01-13T18:47:37.279Z,5.20
2018-01-13T18:50:05.539Z,5.20
2018-01-13T18:52:33.026Z,5.10
2018-01-13T18:55:00.529Z,5.00
2018-01-13T18:57:28.772Z,5.00
2018-01-13T18:59:56.309Z,5.00
2018-01-13T19:02:23.830Z,4.90
2018-01-13T19:04:52.780Z,5.00
2018-01-13T19:07:21.038Z,4.90
2018-01-13T19:09:48.512Z,4.80
2018-01-13T19:12:17.204Z,4.80
2018-01-13T19:14:45.081Z,4.80
2018-01-13T19:17:12.960Z,4.80
2018-01-13T19:19:40.839Z,4.70
2018-01-13T19:22:08.338Z,4.70
2018-01-13T19:24:36.223Z,4.70
2018-01-13T19:27:04.811Z,4.60
2018-01-13T19:29:32.690Z,4.60
2018-01-13T19:32:00.687Z,4.60
2018-01-13T19:34:28.509Z,4.60
2018-01-13T19:36:56.773Z,4.60
2018-01-13T19:39:24.704Z,4.50
2018-01-13T19:41:52.514Z,4.50
2018-01-13T19:44:20.399Z,4.50
2018-01-13T19:46:47.876Z,4.40
2018-01-13T19:49:16.104Z,4.40
2018-01-13T19:51:43.600Z,4.40
2018-01-13T19:54:11.483Z,4.40
2018-01-13T19:56:40.019Z,4.40
2018-01-13T19:59:07.898Z,4.30
2018-01-13T20:01:36.144Z,4.30
2018-01-13T20:04:03.979Z,4.30
2018-01-13T20:06:31.493Z,4.30
2018-01-13T20:08:59.390Z,4.20
2018-01-13T20:11:27.331Z,4.20
2018-01-13T20:13:55.197Z,4.20
2018-01-13T20:16:22.789Z,4.10
2018-01-13T20:18:50.298Z,4.10
2018-01-13T20:21:17.857Z,4.00
2018-01-13T20:23:45.335Z,3.90
2018-01-13T20:26:13.598Z,3.90
2018-01-13T20:28:41.891Z,4.00
2018-01-13T20:31:09.783Z,3.90
2018-01-13T20:33:37.616Z,3.90
2018-01-13T20:36:05.500Z,3.90
2018-01-13T20:38:33.073Z,3.90
2018-01-13T20:41:01.315Z,3.90
2018-01-13T20:43:29.559Z,3.80
2018-01-13T20:45:57.082Z,3.80
2018-01-13T20:48:25.427Z,3.70
2018-01-13T20:50:53.675Z,3.60
2018-01-13T20:53:21.179Z,3.60
2018-01-13T20:55:49.012Z,3.60
2018-01-13T20:58:16.892Z,3.50
2018-01-13T21:00:44.805Z,3.40
2018-01-13T21:03:12.944Z,3.50
2018-01-13T21:05:40.852Z,3.40
2018-01-13T21:08:08.728Z,3.40
2018-01-13T21:10:36.928Z,3.30
2018-01-13T21:13:04.791Z,3.30
2018-01-13T21:15:32.695Z,3.30
2018-01-13T21:18:00.936Z,3.30
2018-01-13T21:20:29.215Z,3.20
2018-01-13T21:22:57.468Z,3.20
2018-01-13T21:25:26.076Z,3.20
2018-01-13T21:27:54.317Z,3.10
2018-01-13T21:30:22.198Z,3.10
2018-01-13T21:32:49.977Z,3.00
2018-01-13T21:35:17.855Z,3.00
2018-01-13T21:37:45.369Z,3.00
2018-01-13T21:40:13.211Z,3.00
2018-01-13T21:42:40.718Z,3.10
2018-01-13T21:45:08.219Z,3.10
2018-01-13T21:47:37.275Z,3.00
2018-01-13T21:50:05.145Z,3.00
2018-01-13T21:52:33.303Z,3.00
2018-01-13T21:55:01.158Z,3.00
2018-01-13T21:57:28.887Z,2.90
2018-01-13T21:59:56.450Z,2.90
2018-01-13T22:02:24.213Z,2.90
2018-01-13T22:04:52.067Z,2.90
2018-01-13T22:07:19.935Z,2.90
2018-01-13T22:09:48.182Z,2.90
2018-01-13T22:12:16.103Z,2.80
2018-01-13T22:14:43.620Z,2.90
2018-01-13T22:17:11.879Z,2.80
2018-01-13T22:19:40.131Z,2.80
2018-01-13T22:22:08.013Z,2.90
2018-01-13T22:24:37.012Z,2.80
2018-01-13T22:27:05.271Z,2.80
2018-01-13T22:29:33.166Z,2.70
2018-01-13T22:32:01.455Z,2.70
2018-01-13T22:34:29.329Z,2.70
2018-01-13T22:36:56.803Z,2.70
2018-01-13T22:39:24.667Z,2.70
2018-01-13T22:41:52.941Z,2.70
2018-01-13T22:44:20.836Z,2.60
2018-01-13T22:46:48.629Z,2.60
2018-01-13T22:49:16.883Z,2.70
2018-01-13T22:51:44.360Z,2.70
2018-01-13T22:54:12.957Z,2.70
2018-01-13T22:56:41.214Z,2.80
2018-01-13T22:59:09.132Z,2.70
2018-01-13T23:01:36.950Z,2.80
2018-01-13T23:04:04.411Z,2.80
2018-01-13T23:06:32.275Z,2.80
2018-01-13T23:09:00.495Z,2.80
2018-01-13T23:11:27.963Z,2.80
2018-01-13T23:13:56.566Z,2.80
2018-01-13T23:16:24.362Z,2.80
2018-01-13T23:18:51.889Z,2.80
2018-01-13T23:21:19.762Z,2.80
2018-01-13T23:23:47.951Z,2.80
2018-01-13T23:26:16.208Z,2.90
2018-01-13T23:28:43.675Z,2.90
2018-01-13T23:31:11.555Z,2.90
2018-01-13T23:33:39.811Z,3.00
2018-01-13T23:36:07.679Z,3.00
2018-01-13T23:38:35.568Z,3.00
2018-01-13T23:41:03.803Z,3.10
2018-01-13T23:43:31.268Z,3.00
2018-01-13T23:45:59.067Z,3.10
2018-01-13T23:48:27.315Z,3.10
2018-01-13T23:50:54.837Z,3.10
2018-01-13T23:53:23.084Z,3.10
2018-01-13T23:55:51.332Z,3.00
2018-01-13T23:58:19.202Z,3.00
